MMF19 EFRO-EFRO
Flight info
| Callsign | MMF19 |
|---|---|
| Flight time | 0h 53m |
| Altitude | 22000 |
| Route | H02C |
| Aircraft | A332/H-SBDE1E2E3FGHIJ1J3J4J7P2RWXYZ/LB1D1 |
Departure
| Time | 2026-05-05 18:25 |
|---|---|
| Airport | Rovaniemi Airport (EFRO) |
Arrival
| Time | 2026-05-05 19:18 |
|---|---|
| Airport | Rovaniemi Airport (EFRO) |
| Time | Latitude | Longitude | Altitude | Speed | Heading |
|---|---|---|---|---|---|
| 2026-05-05 18:01 | 66.56014 | 25.83088 | 620 ft | 0 kts | 189° |
| 2026-05-05 18:18 | 66.56005 | 25.83082 | 619 ft | 3 kts | 197° |
| 2026-05-05 18:18 | 66.55988 | 25.83035 | 619 ft | 5 kts | 240° |
| 2026-05-05 18:19 | 66.55972 | 25.82894 | 619 ft | 11 kts | 260° |
| 2026-05-05 18:19 | 66.56005 | 25.82759 | 622 ft | 10 kts | 347° |
| 2026-05-05 18:19 | 66.56075 | 25.82816 | 619 ft | 11 kts | 34° |
| 2026-05-05 18:19 | 66.56142 | 25.82940 | 620 ft | 12 kts | 36° |
| 2026-05-05 18:20 | 66.56213 | 25.83071 | 624 ft | 14 kts | 36° |
| 2026-05-05 18:20 | 66.56291 | 25.83224 | 624 ft | 15 kts | 38° |
| 2026-05-05 18:20 | 66.56374 | 25.83382 | 626 ft | 15 kts | 37° |
| 2026-05-05 18:20 | 66.56465 | 25.83556 | 624 ft | 18 kts | 37° |
| 2026-05-05 18:21 | 66.56571 | 25.83759 | 623 ft | 18 kts | 37° |
| 2026-05-05 18:21 | 66.56676 | 25.83958 | 618 ft | 20 kts | 37° |
| 2026-05-05 18:21 | 66.56779 | 25.84154 | 617 ft | 15 kts | 37° |
| 2026-05-05 18:21 | 66.56877 | 25.84342 | 612 ft | 19 kts | 38° |
| 2026-05-05 18:22 | 66.56988 | 25.84556 | 610 ft | 18 kts | 37° |
| 2026-05-05 18:22 | 66.57082 | 25.84735 | 609 ft | 17 kts | 37° |
| 2026-05-05 18:22 | 66.57187 | 25.84935 | 605 ft | 20 kts | 37° |
| 2026-05-05 18:22 | 66.57288 | 25.85125 | 604 ft | 15 kts | 37° |
| 2026-05-05 18:23 | 66.57370 | 25.85279 | 604 ft | 14 kts | 34° |
| 2026-05-05 18:23 | 66.57454 | 25.85306 | 603 ft | 12 kts | 340° |
| 2026-05-05 18:23 | 66.57512 | 25.85175 | 609 ft | 11 kts | 309° |
| 2026-05-05 18:23 | 66.57541 | 25.85074 | 608 ft | 2 kts | 284° |
| 2026-05-05 18:24 | 66.57536 | 25.85047 | 606 ft | 2 kts | 242° |
| 2026-05-05 18:24 | 66.57525 | 25.85031 | 611 ft | 3 kts | 217° |
| 2026-05-05 18:24 | 66.57348 | 25.84696 | 607 ft | 69 kts | 217° |
| 2026-05-05 18:24 | 66.56775 | 25.83603 | 626 ft | 137 kts | 217° |
| 2026-05-05 18:25 | 66.55880 | 25.81935 | 977 ft | 172 kts | 218° |
| 2026-05-05 18:25 | 66.55238 | 25.80729 | 1613 ft | 174 kts | 219° |
| 2026-05-05 18:25 | 66.53750 | 25.79298 | 2788 ft | 185 kts | 172° |
| 2026-05-05 18:25 | 66.52529 | 25.80795 | 3212 ft | 211 kts | 140° |
| 2026-05-05 18:26 | 66.51357 | 25.83457 | 3557 ft | 244 kts | 131° |
| 2026-05-05 18:26 | 66.50223 | 25.86765 | 4205 ft | 259 kts | 126° |
| 2026-05-05 18:26 | 66.49151 | 25.90468 | 5142 ft | 265 kts | 122° |
| 2026-05-05 18:26 | 66.48136 | 25.94354 | 6138 ft | 269 kts | 120° |
| 2026-05-05 18:27 | 66.47140 | 25.98355 | 7108 ft | 273 kts | 119° |
| 2026-05-05 18:27 | 66.46138 | 26.02443 | 8138 ft | 277 kts | 119° |
| 2026-05-05 18:27 | 66.45117 | 26.06589 | 9185 ft | 282 kts | 120° |
| 2026-05-05 18:27 | 66.44068 | 26.10802 | 9997 ft | 293 kts | 120° |
| 2026-05-05 18:28 | 66.41708 | 26.20146 | 10708 ft | 341 kts | 121° |
| 2026-05-05 18:28 | 66.40398 | 26.25262 | 11279 ft | 355 kts | 121° |
| 2026-05-05 18:28 | 66.39050 | 26.30495 | 12103 ft | 361 kts | 121° |
| 2026-05-05 18:29 | 66.37681 | 26.35790 | 12975 ft | 365 kts | 121° |
| 2026-05-05 18:29 | 66.36289 | 26.41159 | 13795 ft | 370 kts | 121° |
| 2026-05-05 18:29 | 66.34905 | 26.46493 | 14545 ft | 374 kts | 122° |
| 2026-05-05 18:29 | 66.33450 | 26.51922 | 15320 ft | 380 kts | 126° |
| 2026-05-05 18:30 | 66.31670 | 26.56819 | 16083 ft | 385 kts | 138° |
| 2026-05-05 18:30 | 66.29433 | 26.60556 | 16824 ft | 391 kts | 154° |
| 2026-05-05 18:30 | 66.26832 | 26.62562 | 17583 ft | 395 kts | 172° |
| 2026-05-05 18:30 | 66.24082 | 26.62490 | 18247 ft | 398 kts | 190° |
| 2026-05-05 18:31 | 66.21435 | 26.60399 | 18863 ft | 402 kts | 206° |
| 2026-05-05 18:31 | 66.18988 | 26.57030 | 19537 ft | 404 kts | 212° |
| 2026-05-05 18:31 | 66.16624 | 26.53213 | 20201 ft | 407 kts | 215° |
| 2026-05-05 18:31 | 66.14286 | 26.49192 | 20787 ft | 411 kts | 216° |
| 2026-05-05 18:32 | 66.11943 | 26.45114 | 21335 ft | 414 kts | 215° |
| 2026-05-05 18:32 | 66.09580 | 26.41058 | 21542 ft | 419 kts | 215° |
| 2026-05-05 18:32 | 66.07228 | 26.37103 | 21552 ft | 400 kts | 214° |
| 2026-05-05 18:32 | 66.04950 | 26.33425 | 21557 ft | 381 kts | 211° |
| 2026-05-05 18:33 | 66.02651 | 26.30645 | 21551 ft | 365 kts | 201° |
| 2026-05-05 18:33 | 66.00273 | 26.28880 | 21554 ft | 349 kts | 193° |
| 2026-05-05 18:33 | 65.97947 | 26.27639 | 21549 ft | 336 kts | 191° |
| 2026-05-05 18:33 | 65.95666 | 26.26648 | 21558 ft | 331 kts | 189° |
| 2026-05-05 18:34 | 65.93393 | 26.25775 | 21551 ft | 329 kts | 187° |
| 2026-05-05 18:34 | 65.91135 | 26.24951 | 21545 ft | 327 kts | 187° |
| 2026-05-05 18:34 | 65.88889 | 26.24135 | 21553 ft | 326 kts | 187° |
| 2026-05-05 18:34 | 65.86644 | 26.23305 | 21549 ft | 326 kts | 187° |
| 2026-05-05 18:35 | 65.84406 | 26.22462 | 21551 ft | 326 kts | 188° |
| 2026-05-05 18:35 | 65.82164 | 26.21603 | 21551 ft | 326 kts | 187° |
| 2026-05-05 18:35 | 65.79924 | 26.20738 | 21551 ft | 326 kts | 188° |
| 2026-05-05 18:35 | 65.77684 | 26.19872 | 21551 ft | 326 kts | 188° |
| 2026-05-05 18:36 | 65.75442 | 26.19010 | 21552 ft | 326 kts | 187° |
| 2026-05-05 18:36 | 65.73187 | 26.18685 | 21553 ft | 324 kts | 176° |
| 2026-05-05 18:36 | 65.70966 | 26.19499 | 21552 ft | 322 kts | 162° |
| 2026-05-05 18:36 | 65.68911 | 26.21611 | 21551 ft | 320 kts | 147° |
| 2026-05-05 18:37 | 65.67185 | 26.24946 | 21555 ft | 318 kts | 131° |
| 2026-05-05 18:37 | 65.65904 | 26.29288 | 21550 ft | 325 kts | 115° |
| 2026-05-05 18:37 | 65.65136 | 26.34476 | 21556 ft | 329 kts | 102° |
| 2026-05-05 18:37 | 65.64733 | 26.39954 | 21550 ft | 330 kts | 92° |
| 2026-05-05 18:38 | 65.64933 | 26.45440 | 21549 ft | 327 kts | 73° |
| 2026-05-05 18:38 | 65.65935 | 26.50338 | 21552 ft | 326 kts | 54° |
| 2026-05-05 18:38 | 65.67452 | 26.54411 | 21549 ft | 326 kts | 37° |
| 2026-05-05 18:38 | 65.69469 | 26.56851 | 21548 ft | 326 kts | 16° |
| 2026-05-05 18:39 | 65.71702 | 26.57923 | 21553 ft | 327 kts | 9° |
| 2026-05-05 18:39 | 65.73963 | 26.58760 | 21550 ft | 329 kts | 9° |
| 2026-05-05 18:39 | 65.76234 | 26.59572 | 21544 ft | 329 kts | 9° |
| 2026-05-05 18:39 | 65.78494 | 26.60368 | 21545 ft | 328 kts | 9° |
| 2026-05-05 18:40 | 65.80754 | 26.61178 | 21551 ft | 328 kts | 9° |
| 2026-05-05 18:40 | 65.82990 | 26.61990 | 21553 ft | 329 kts | 9° |
| 2026-05-05 18:40 | 65.85255 | 26.62807 | 21551 ft | 329 kts | 9° |
| 2026-05-05 18:40 | 65.87516 | 26.63613 | 21546 ft | 328 kts | 9° |
| 2026-05-05 18:41 | 65.89771 | 26.64453 | 21549 ft | 327 kts | 9° |
| 2026-05-05 18:41 | 65.92022 | 26.65359 | 21542 ft | 327 kts | 9° |
| 2026-05-05 18:41 | 65.94253 | 26.66271 | 21539 ft | 322 kts | 9° |
| 2026-05-05 18:41 | 65.96438 | 26.67168 | 21552 ft | 315 kts | 9° |
| 2026-05-05 18:42 | 65.98590 | 26.68052 | 21547 ft | 313 kts | 9° |
| 2026-05-05 18:42 | 66.00743 | 26.68932 | 21549 ft | 314 kts | 9° |
| 2026-05-05 18:42 | 66.02913 | 26.69335 | 21543 ft | 314 kts | 354° |
| 2026-05-05 18:42 | 66.04985 | 26.67723 | 21545 ft | 314 kts | 331° |
| 2026-05-05 18:43 | 66.06627 | 26.64174 | 21546 ft | 317 kts | 307° |
| 2026-05-05 18:43 | 66.07562 | 26.59254 | 21541 ft | 321 kts | 284° |
| 2026-05-05 18:43 | 66.07634 | 26.53760 | 21545 ft | 325 kts | 261° |
| 2026-05-05 18:43 | 66.06839 | 26.48645 | 21547 ft | 327 kts | 238° |
| 2026-05-05 18:44 | 66.05278 | 26.44604 | 21550 ft | 329 kts | 214° |
| 2026-05-05 18:44 | 66.03199 | 26.42316 | 21549 ft | 328 kts | 194° |
| 2026-05-05 18:44 | 66.00958 | 26.41203 | 21549 ft | 330 kts | 189° |
| 2026-05-05 18:44 | 65.98686 | 26.40263 | 21548 ft | 331 kts | 189° |
| 2026-05-05 18:45 | 65.96408 | 26.39338 | 21549 ft | 331 kts | 189° |
| 2026-05-05 18:45 | 65.94136 | 26.38418 | 21549 ft | 331 kts | 189° |
| 2026-05-05 18:45 | 65.91861 | 26.37476 | 21551 ft | 330 kts | 188° |
| 2026-05-05 18:45 | 65.89613 | 26.36481 | 21555 ft | 328 kts | 189° |
| 2026-05-05 18:46 | 65.87400 | 26.35493 | 21551 ft | 327 kts | 189° |
| 2026-05-05 18:46 | 65.85165 | 26.34515 | 21548 ft | 326 kts | 189° |
| 2026-05-05 18:46 | 65.82925 | 26.33524 | 21551 ft | 326 kts | 189° |
| 2026-05-05 18:46 | 65.80689 | 26.32545 | 21556 ft | 326 kts | 189° |
| 2026-05-05 18:47 | 65.78456 | 26.31583 | 21552 ft | 326 kts | 189° |
| 2026-05-05 18:47 | 65.76223 | 26.30626 | 21549 ft | 326 kts | 188° |
| 2026-05-05 18:47 | 65.73990 | 26.29650 | 21548 ft | 326 kts | 189° |
| 2026-05-05 18:47 | 65.71754 | 26.28676 | 21558 ft | 326 kts | 189° |
| 2026-05-05 18:48 | 65.69515 | 26.27715 | 21548 ft | 327 kts | 189° |
| 2026-05-05 18:48 | 65.67269 | 26.26742 | 21556 ft | 329 kts | 189° |
| 2026-05-05 18:48 | 65.65024 | 26.25913 | 21549 ft | 330 kts | 181° |
| 2026-05-05 18:48 | 65.62780 | 26.26713 | 21555 ft | 325 kts | 158° |
| 2026-05-05 18:49 | 65.60875 | 26.29515 | 21556 ft | 320 kts | 134° |
| 2026-05-05 18:49 | 65.59602 | 26.33845 | 21545 ft | 316 kts | 111° |
| 2026-05-05 18:49 | 65.59155 | 26.39009 | 21557 ft | 320 kts | 88° |
| 2026-05-05 18:49 | 65.59606 | 26.44383 | 21546 ft | 333 kts | 66° |
| 2026-05-05 18:50 | 65.60881 | 26.48992 | 21553 ft | 337 kts | 44° |
| 2026-05-05 18:50 | 65.62820 | 26.52119 | 21745 ft | 335 kts | 21° |
| 2026-05-05 18:50 | 65.65061 | 26.53444 | 22346 ft | 328 kts | 10° |
| 2026-05-05 18:50 | 65.67291 | 26.54239 | 22559 ft | 321 kts | 9° |
| 2026-05-05 18:51 | 65.69506 | 26.54960 | 22554 ft | 321 kts | 9° |
| 2026-05-05 18:51 | 65.71720 | 26.55698 | 22551 ft | 322 kts | 9° |
| 2026-05-05 18:51 | 65.73944 | 26.56448 | 22552 ft | 323 kts | 9° |
| 2026-05-05 18:51 | 65.76172 | 26.57195 | 22553 ft | 323 kts | 9° |
| 2026-05-05 18:52 | 65.78387 | 26.57917 | 22547 ft | 322 kts | 8° |
| 2026-05-05 18:52 | 65.80612 | 26.58663 | 22547 ft | 322 kts | 9° |
| 2026-05-05 18:52 | 65.82831 | 26.59431 | 22547 ft | 323 kts | 9° |
| 2026-05-05 18:52 | 65.85056 | 26.60186 | 22548 ft | 323 kts | 9° |
| 2026-05-05 18:53 | 65.87285 | 26.60927 | 22548 ft | 322 kts | 9° |
| 2026-05-05 18:53 | 65.89504 | 26.61683 | 22551 ft | 322 kts | 8° |
| 2026-05-05 18:53 | 65.91688 | 26.62508 | 22545 ft | 320 kts | 9° |
| 2026-05-05 18:53 | 65.93882 | 26.63362 | 22546 ft | 319 kts | 9° |
| 2026-05-05 18:54 | 65.96069 | 26.64214 | 22549 ft | 318 kts | 9° |
| 2026-05-05 18:54 | 65.98254 | 26.65068 | 22550 ft | 318 kts | 9° |
| 2026-05-05 18:54 | 66.00444 | 26.65898 | 22546 ft | 319 kts | 7° |
| 2026-05-05 18:54 | 66.02655 | 26.65587 | 22552 ft | 320 kts | 345° |
| 2026-05-05 18:55 | 66.04642 | 26.63158 | 22547 ft | 322 kts | 322° |
| 2026-05-05 18:55 | 66.06088 | 26.58977 | 22547 ft | 325 kts | 300° |
| 2026-05-05 18:55 | 66.06765 | 26.53679 | 22548 ft | 328 kts | 276° |
| 2026-05-05 18:55 | 66.06557 | 26.48097 | 22546 ft | 331 kts | 253° |
| 2026-05-05 18:56 | 66.05490 | 26.43104 | 22551 ft | 332 kts | 231° |
| 2026-05-05 18:56 | 66.03722 | 26.39474 | 22550 ft | 333 kts | 208° |
| 2026-05-05 18:56 | 66.01533 | 26.37622 | 22555 ft | 334 kts | 192° |
| 2026-05-05 18:56 | 65.99247 | 26.36576 | 22550 ft | 335 kts | 189° |
| 2026-05-05 18:57 | 65.97722 | 26.35936 | 22550 ft | 335 kts | 189° |
| 2026-05-05 18:57 | 65.95421 | 26.34977 | 22551 ft | 336 kts | 189° |
| 2026-05-05 18:57 | 65.93118 | 26.34007 | 22551 ft | 336 kts | 188° |
| 2026-05-05 18:57 | 65.90094 | 26.32663 | 22553 ft | 331 kts | 189° |
| 2026-05-05 18:58 | 65.87836 | 26.31652 | 22553 ft | 330 kts | 189° |
| 2026-05-05 18:58 | 65.86306 | 26.30965 | 22554 ft | 330 kts | 189° |
| 2026-05-05 18:58 | 65.84077 | 26.29980 | 22553 ft | 330 kts | 189° |
| 2026-05-05 18:58 | 65.81817 | 26.28993 | 22553 ft | 329 kts | 189° |
| 2026-05-05 18:59 | 65.79558 | 26.28001 | 22554 ft | 330 kts | 189° |
| 2026-05-05 18:59 | 65.77298 | 26.26999 | 22552 ft | 330 kts | 189° |
| 2026-05-05 18:59 | 65.75043 | 26.26005 | 22553 ft | 330 kts | 189° |
| 2026-05-05 18:59 | 65.72785 | 26.25013 | 22553 ft | 330 kts | 189° |
| 2026-05-05 19:00 | 65.70524 | 26.24009 | 22551 ft | 330 kts | 189° |
| 2026-05-05 19:00 | 65.68264 | 26.23011 | 22561 ft | 330 kts | 189° |
| 2026-05-05 19:00 | 65.65996 | 26.22020 | 22560 ft | 330 kts | 187° |
| 2026-05-05 19:00 | 65.63749 | 26.21997 | 22557 ft | 326 kts | 166° |
| 2026-05-05 19:01 | 65.61670 | 26.24036 | 22560 ft | 323 kts | 144° |
| 2026-05-05 19:01 | 65.60099 | 26.27845 | 22556 ft | 320 kts | 121° |
| 2026-05-05 19:01 | 65.59292 | 26.32779 | 22555 ft | 316 kts | 98° |
| 2026-05-05 19:01 | 65.59369 | 26.38055 | 22555 ft | 316 kts | 75° |
| 2026-05-05 19:02 | 65.60319 | 26.42827 | 22554 ft | 317 kts | 52° |
| 2026-05-05 19:02 | 65.61984 | 26.46286 | 22554 ft | 318 kts | 29° |
| 2026-05-05 19:02 | 65.64080 | 26.47964 | 22550 ft | 320 kts | 12° |
| 2026-05-05 19:02 | 65.66288 | 26.48800 | 22550 ft | 322 kts | 9° |
| 2026-05-05 19:03 | 65.68514 | 26.49534 | 22549 ft | 323 kts | 9° |
| 2026-05-05 19:03 | 65.70738 | 26.50240 | 22548 ft | 322 kts | 9° |
| 2026-05-05 19:03 | 65.72938 | 26.50957 | 22550 ft | 322 kts | 8° |
| 2026-05-05 19:03 | 65.75164 | 26.51705 | 22550 ft | 323 kts | 9° |
| 2026-05-05 19:04 | 65.77391 | 26.52443 | 22554 ft | 323 kts | 9° |
| 2026-05-05 19:04 | 65.79616 | 26.53223 | 22554 ft | 322 kts | 10° |
| 2026-05-05 19:04 | 65.81829 | 26.54044 | 22553 ft | 322 kts | 11° |
| 2026-05-05 19:04 | 65.84060 | 26.54894 | 22555 ft | 323 kts | 9° |
| 2026-05-05 19:05 | 65.86305 | 26.54707 | 22557 ft | 324 kts | 351° |
| 2026-05-05 19:05 | 65.88510 | 26.53929 | 22552 ft | 324 kts | 354° |
| 2026-05-05 19:05 | 65.90746 | 26.53141 | 22550 ft | 325 kts | 353° |
| 2026-05-05 19:05 | 65.92915 | 26.51698 | 22551 ft | 324 kts | 335° |
| 2026-05-05 19:06 | 65.94813 | 26.48737 | 22557 ft | 323 kts | 325° |
| 2026-05-05 19:06 | 65.96621 | 26.45453 | 22552 ft | 324 kts | 324° |
| 2026-05-05 19:06 | 65.98403 | 26.42077 | 22505 ft | 322 kts | 323° |
| 2026-05-05 19:06 | 66.00156 | 26.38693 | 22168 ft | 319 kts | 323° |
| 2026-05-05 19:07 | 66.01900 | 26.35314 | 21665 ft | 318 kts | 323° |
| 2026-05-05 19:07 | 66.03624 | 26.31973 | 21001 ft | 313 kts | 323° |
| 2026-05-05 19:07 | 66.05330 | 26.28665 | 20258 ft | 310 kts | 323° |
| 2026-05-05 19:07 | 66.07016 | 26.25396 | 19549 ft | 307 kts | 323° |
| 2026-05-05 19:08 | 66.08685 | 26.22154 | 18838 ft | 304 kts | 322° |
| 2026-05-05 19:08 | 66.10340 | 26.18935 | 18025 ft | 304 kts | 322° |
| 2026-05-05 19:08 | 66.12025 | 26.15654 | 16772 ft | 313 kts | 322° |
| 2026-05-05 19:08 | 66.13734 | 26.12320 | 15457 ft | 321 kts | 322° |
| 2026-05-05 19:09 | 66.15499 | 26.08868 | 14254 ft | 325 kts | 322° |
| 2026-05-05 19:09 | 66.17267 | 26.05405 | 13276 ft | 323 kts | 322° |
| 2026-05-05 19:09 | 66.19029 | 26.01945 | 12629 ft | 324 kts | 322° |
| 2026-05-05 19:09 | 66.20787 | 25.98490 | 12320 ft | 318 kts | 322° |
| 2026-05-05 19:10 | 66.22488 | 25.95137 | 11937 ft | 306 kts | 322° |
| 2026-05-05 19:10 | 66.24111 | 25.91934 | 11487 ft | 289 kts | 322° |
| 2026-05-05 19:10 | 66.25647 | 25.88895 | 11066 ft | 276 kts | 322° |
| 2026-05-05 19:10 | 66.27123 | 25.85972 | 10694 ft | 268 kts | 322° |
| 2026-05-05 19:11 | 66.28546 | 25.83150 | 10561 ft | 260 kts | 322° |
| 2026-05-05 19:11 | 66.29919 | 25.80424 | 10470 ft | 246 kts | 322° |
| 2026-05-05 19:11 | 66.31233 | 25.77811 | 10279 ft | 236 kts | 322° |
| 2026-05-05 19:11 | 66.32509 | 25.75273 | 9632 ft | 235 kts | 322° |
| 2026-05-05 19:12 | 66.33791 | 25.72722 | 8868 ft | 237 kts | 322° |
| 2026-05-05 19:12 | 66.35078 | 25.70155 | 8120 ft | 235 kts | 322° |
| 2026-05-05 19:12 | 66.36351 | 25.67610 | 7410 ft | 233 kts | 322° |
| 2026-05-05 19:12 | 66.37614 | 25.65082 | 6726 ft | 231 kts | 322° |
| 2026-05-05 19:13 | 66.38861 | 25.62582 | 6085 ft | 228 kts | 322° |
| 2026-05-05 19:13 | 66.40098 | 25.60134 | 5411 ft | 226 kts | 325° |
| 2026-05-05 19:13 | 66.41483 | 25.58387 | 4721 ft | 223 kts | 345° |
| 2026-05-05 19:13 | 66.42996 | 25.58301 | 3926 ft | 219 kts | 12° |
| 2026-05-05 19:14 | 66.44360 | 25.59942 | 3110 ft | 217 kts | 34° |
| 2026-05-05 19:14 | 66.45542 | 25.62119 | 2696 ft | 203 kts | 38° |
| 2026-05-05 19:14 | 66.46586 | 25.64144 | 2631 ft | 175 kts | 38° |
| 2026-05-05 19:14 | 66.47473 | 25.65865 | 2633 ft | 150 kts | 37° |
| 2026-05-05 19:15 | 66.48242 | 25.67346 | 2517 ft | 131 kts | 37° |
| 2026-05-05 19:15 | 66.48935 | 25.68674 | 2290 ft | 121 kts | 37° |
| 2026-05-05 19:15 | 66.49590 | 25.69922 | 2075 ft | 116 kts | 37° |
| 2026-05-05 19:15 | 66.50230 | 25.71141 | 1936 ft | 115 kts | 37° |
| 2026-05-05 19:16 | 66.50872 | 25.72363 | 1807 ft | 116 kts | 37° |
| 2026-05-05 19:16 | 66.51519 | 25.73592 | 1650 ft | 117 kts | 36° |
| 2026-05-05 19:16 | 66.52168 | 25.74826 | 1482 ft | 117 kts | 36° |
| 2026-05-05 19:16 | 66.52809 | 25.76044 | 1315 ft | 117 kts | 36° |
| 2026-05-05 19:17 | 66.53461 | 25.77282 | 1153 ft | 118 kts | 36° |
| 2026-05-05 19:17 | 66.54118 | 25.78520 | 996 ft | 118 kts | 36° |
| 2026-05-05 19:17 | 66.54772 | 25.79771 | 810 ft | 118 kts | 36° |
| 2026-05-05 19:17 | 66.55425 | 25.81006 | 654 ft | 117 kts | 37° |
| 2026-05-05 19:18 | 66.56019 | 25.82146 | 628 ft | 94 kts | 37° |
| 2026-05-05 19:18 | 66.56455 | 25.82983 | 638 ft | 61 kts | 37° |
| 2026-05-05 19:18 | 66.56720 | 25.83490 | 637 ft | 40 kts | 37° |
| 2026-05-05 19:18 | 66.56927 | 25.83881 | 627 ft | 31 kts | 37° |
| 2026-05-05 19:19 | 66.57061 | 25.84144 | 627 ft | 21 kts | 38° |
| 2026-05-05 19:19 | 66.57146 | 25.84338 | 630 ft | 14 kts | 53° |
| 2026-05-05 19:19 | 66.57162 | 25.84563 | 620 ft | 15 kts | 113° |
| 2026-05-05 19:19 | 66.57075 | 25.84689 | 614 ft | 15 kts | 186° |
| 2026-05-05 19:20 | 66.56980 | 25.84545 | 617 ft | 18 kts | 217° |
| 2026-05-05 19:20 | 66.56877 | 25.84351 | 618 ft | 19 kts | 217° |
| 2026-05-05 19:20 | 66.56771 | 25.84145 | 622 ft | 19 kts | 218° |
| 2026-05-05 19:20 | 66.56669 | 25.83948 | 623 ft | 18 kts | 217° |
| 2026-05-05 19:21 | 66.56570 | 25.83763 | 632 ft | 17 kts | 217° |
| 2026-05-05 19:21 | 66.56477 | 25.83583 | 630 ft | 17 kts | 217° |
| 2026-05-05 19:21 | 66.56378 | 25.83394 | 633 ft | 19 kts | 217° |
| 2026-05-05 19:21 | 66.56271 | 25.83189 | 629 ft | 19 kts | 217° |
| 2026-05-05 19:22 | 66.56180 | 25.83053 | 628 ft | 16 kts | 198° |
| 2026-05-05 19:22 | 66.56088 | 25.83052 | 628 ft | 11 kts | 168° |
| 2026-05-05 19:22 | 66.56061 | 25.83066 | 629 ft | 0 kts | 168° |